createdAt,value
2019-03-24T00:00:05.930Z,52.77
2019-03-24T00:02:34.497Z,52.10
2019-03-24T00:05:03.200Z,50.77
2019-03-24T00:07:31.695Z,49.63
2019-03-24T00:10:00.323Z,52.37
2019-03-24T00:12:29.334Z,52.97
2019-03-24T00:14:57.759Z,52.33
2019-03-24T00:17:26.198Z,50.50
2019-03-24T00:19:54.619Z,51.17
2019-03-24T00:22:23.052Z,50.43
2019-03-24T00:24:51.466Z,53.03
2019-03-24T00:27:19.896Z,51.23
2019-03-24T00:29:48.337Z,51.03
2019-03-24T00:32:16.767Z,50.77
2019-03-24T00:34:45.210Z,53.03
2019-03-24T00:37:13.644Z,52.43
2019-03-24T00:39:42.064Z,52.23
2019-03-24T00:42:10.495Z,50.27
2019-03-24T00:44:38.920Z,51.17
2019-03-24T00:47:07.354Z,51.27
2019-03-24T00:49:35.761Z,51.97
2019-03-24T00:52:04.270Z,50.73
2019-03-24T00:54:32.704Z,50.30
2019-03-24T00:57:01.217Z,48.37
2019-03-24T00:59:29.658Z,51.13
2019-03-24T01:01:58.118Z,52.53
2019-03-24T01:04:26.614Z,50.93
2019-03-24T01:06:55.106Z,50.70
2019-03-24T01:09:23.526Z,53.30
2019-03-24T01:11:51.960Z,51.53
2019-03-24T01:14:20.417Z,50.80
2019-03-24T01:16:48.865Z,49.00
2019-03-24T01:19:17.285Z,49.83
2019-03-24T01:21:45.713Z,50.37
2019-03-24T01:24:14.148Z,51.13
2019-03-24T01:26:42.578Z,50.67
2019-03-24T01:29:10.998Z,50.90
2019-03-24T01:31:39.435Z,49.73
2019-03-24T01:34:07.859Z,49.10
2019-03-24T01:36:36.297Z,50.70
2019-03-24T01:39:06.757Z,53.30
2019-03-24T01:41:35.186Z,50.97
2019-03-24T01:44:03.764Z,49.43
2019-03-24T01:46:32.185Z,49.80
2019-03-24T01:49:00.626Z,49.03
2019-03-24T01:51:29.048Z,49.33
2019-03-24T01:53:57.481Z,48.20
2019-03-24T01:56:25.913Z,49.50
2019-03-24T01:58:54.334Z,50.10
2019-03-24T02:01:22.749Z,47.80
2019-03-24T02:03:51.177Z,48.43
2019-03-24T02:06:19.612Z,49.23
2019-03-24T02:08:48.050Z,47.83
2019-03-24T02:11:16.457Z,48.00
2019-03-24T02:13:44.913Z,47.90
2019-03-24T02:16:13.330Z,47.97
2019-03-24T02:18:41.765Z,50.10
2019-03-24T02:21:10.196Z,50.87
2019-03-24T02:23:38.654Z,49.07
2019-03-24T02:26:07.082Z,46.70
2019-03-24T02:28:35.509Z,48.70
2019-03-24T02:31:03.942Z,49.73
2019-03-24T02:33:32.391Z,49.40
2019-03-24T02:36:00.817Z,48.77
2019-03-24T02:38:29.321Z,50.57
2019-03-24T02:40:57.752Z,48.53
2019-03-24T02:43:26.184Z,48.70
2019-03-24T02:45:54.610Z,46.40
2019-03-24T02:48:23.038Z,47.03
2019-03-24T02:50:51.478Z,48.00
2019-03-24T02:53:19.907Z,47.67
2019-03-24T02:55:48.340Z,48.33
2019-03-24T02:58:16.761Z,46.00
2019-03-24T03:00:45.182Z,46.40
2019-03-24T03:03:13.622Z,48.93
2019-03-24T03:05:42.033Z,47.40
2019-03-24T03:08:10.527Z,46.53
2019-03-24T03:10:38.955Z,48.07
2019-03-24T03:13:07.402Z,45.37
2019-03-24T03:15:35.823Z,48.13
2019-03-24T03:18:04.327Z,44.37
2019-03-24T03:20:32.758Z,43.20
2019-03-24T03:23:01.258Z,43.70
2019-03-24T03:25:29.677Z,45.53
2019-03-24T03:27:58.143Z,43.50
2019-03-24T03:30:26.579Z,42.97
2019-03-24T03:32:55.001Z,43.40
2019-03-24T03:35:23.482Z,44.17
2019-03-24T03:37:51.925Z,44.37
2019-03-24T03:40:20.436Z,40.70
2019-03-24T03:42:48.973Z,40.93
2019-03-24T03:45:20.495Z,42.50
2019-03-24T03:47:48.910Z,41.53
2019-03-24T03:50:17.352Z,41.40
2019-03-24T03:52:45.770Z,43.53
2019-03-24T03:55:14.346Z,42.10
2019-03-24T03:57:42.757Z,41.87
2019-03-24T04:00:11.428Z,41.87
2019-03-24T04:02:39.866Z,38.10
2019-03-24T04:05:08.547Z,39.23
2019-03-24T04:07:36.960Z,39.37
2019-03-24T04:10:05.539Z,39.60
2019-03-24T04:12:33.960Z,38.47
2019-03-24T04:15:02.382Z,38.97
2019-03-24T04:17:30.850Z,37.57
2019-03-24T04:19:59.353Z,38.17
2019-03-24T04:22:27.827Z,38.40
2019-03-24T04:24:56.444Z,39.77
2019-03-24T04:27:24.862Z,37.00
2019-03-24T04:29:53.375Z,37.83
2019-03-24T04:32:21.800Z,37.03
2019-03-24T04:34:50.219Z,37.27
2019-03-24T04:37:18.639Z,34.90
2019-03-24T04:39:47.116Z,38.37
2019-03-24T04:42:15.538Z,38.13
2019-03-24T04:44:43.971Z,38.20
2019-03-24T04:47:16.515Z,38.00
2019-03-24T04:49:42.560Z,38.87
2019-03-24T04:52:10.991Z,38.00
2019-03-24T04:54:39.426Z,38.50
2019-03-24T04:57:07.871Z,37.43
2019-03-24T04:59:36.327Z,38.40
2019-03-24T05:02:04.820Z,38.07
2019-03-24T05:04:33.267Z,36.50
2019-03-24T05:07:01.712Z,38.37
2019-03-24T05:09:30.526Z,37.33
2019-03-24T05:11:58.956Z,38.07
2019-03-24T05:14:27.390Z,37.37
2019-03-24T05:16:55.805Z,38.10
2019-03-24T05:19:24.329Z,36.67
2019-03-24T05:21:52.734Z,37.50
2019-03-24T05:24:21.155Z,36.20
2019-03-24T05:26:49.582Z,35.77
2019-03-24T05:29:18.015Z,34.87
2019-03-24T05:31:46.446Z,36.07
2019-03-24T05:34:14.868Z,35.90
2019-03-24T05:36:44.025Z,37.13
2019-03-24T05:39:12.458Z,39.23
2019-03-24T05:41:40.887Z,36.83
2019-03-24T05:44:09.296Z,37.00
2019-03-24T05:46:37.723Z,36.03
2019-03-24T05:49:06.150Z,35.57
2019-03-24T05:51:34.591Z,34.20
2019-03-24T05:54:03.010Z,36.00
2019-03-24T05:56:31.456Z,34.20
2019-03-24T05:58:59.865Z,37.23
2019-03-24T06:01:28.299Z,36.53
2019-03-24T06:03:56.709Z,35.60
2019-03-24T06:06:25.169Z,36.53
2019-03-24T06:08:53.597Z,35.70
2019-03-24T06:11:22.036Z,34.90
2019-03-24T06:13:50.530Z,36.27
2019-03-24T06:16:18.972Z,34.10
2019-03-24T06:18:47.391Z,34.47
2019-03-24T06:21:16.074Z,36.10
2019-03-24T06:23:44.585Z,37.33
2019-03-24T06:26:13.015Z,35.90
2019-03-24T06:28:41.462Z,36.00
2019-03-24T06:31:09.907Z,36.33
2019-03-24T06:33:38.339Z,35.60
2019-03-24T06:36:06.771Z,34.60
2019-03-24T06:38:35.206Z,35.67
2019-03-24T06:41:03.645Z,35.87
2019-03-24T06:43:32.067Z,35.03
2019-03-24T06:46:00.506Z,35.73
2019-03-24T06:48:28.933Z,35.93
2019-03-24T06:50:57.374Z,38.07
2019-03-24T06:53:25.797Z,35.03
2019-03-24T06:55:54.253Z,35.43
2019-03-24T06:58:22.701Z,34.93
2019-03-24T07:00:51.302Z,38.97
2019-03-24T07:03:19.741Z,37.23
2019-03-24T07:05:48.255Z,34.60
2019-03-24T07:08:16.678Z,35.47
2019-03-24T07:10:45.136Z,35.97
2019-03-24T07:13:13.570Z,35.53
2019-03-24T07:15:41.996Z,35.73
2019-03-24T07:18:10.444Z,35.53
2019-03-24T07:20:38.869Z,39.07
2019-03-24T07:23:07.316Z,39.10
2019-03-24T07:25:35.746Z,39.03
2019-03-24T07:28:04.207Z,39.13
2019-03-24T07:30:32.640Z,38.47
2019-03-24T07:33:06.780Z,37.87
2019-03-24T07:35:35.215Z,35.90
2019-03-24T07:38:03.653Z,37.13
2019-03-24T07:40:32.072Z,38.23
2019-03-24T07:43:00.766Z,39.33
2019-03-24T07:45:29.198Z,39.50
2019-03-24T07:47:57.633Z,41.30
2019-03-24T07:50:26.086Z,41.57
2019-03-24T07:52:54.574Z,41.97
2019-03-24T07:55:22.987Z,47.07
2019-03-24T07:57:51.418Z,45.10
2019-03-24T08:00:36.214Z,47.17
2019-03-24T08:03:04.892Z,47.50
2019-03-24T08:05:33.386Z,44.80
2019-03-24T08:08:01.831Z,51.10
2019-03-24T08:10:30.265Z,46.90
2019-03-24T08:12:58.722Z,47.60
2019-03-24T08:15:27.142Z,44.17
2019-03-24T08:17:55.645Z,44.27
2019-03-24T08:20:24.071Z,43.57
2019-03-24T08:22:52.525Z,45.90
2019-03-24T08:25:20.963Z,44.67
2019-03-24T08:27:49.416Z,47.87
2019-03-24T08:30:20.938Z,46.27
2019-03-24T08:32:49.376Z,46.20
2019-03-24T08:35:17.898Z,44.60
2019-03-24T08:37:46.400Z,45.20
2019-03-24T08:40:14.882Z,43.73
2019-03-24T08:42:43.497Z,44.20
2019-03-24T08:45:14.993Z,43.90
2019-03-24T08:47:43.433Z,42.57
2019-03-24T08:50:11.944Z,44.90
2019-03-24T08:52:40.400Z,44.20
2019-03-24T08:55:08.829Z,43.17
2019-03-24T08:57:37.270Z,42.70
2019-03-24T09:00:06.836Z,42.83
2019-03-24T09:02:35.280Z,43.83
2019-03-24T09:05:05.233Z,45.10
2019-03-24T09:07:33.688Z,42.50
2019-03-24T09:10:02.184Z,42.80
2019-03-24T09:12:31.303Z,44.37
2019-03-24T09:14:59.850Z,43.80
2019-03-24T09:17:28.306Z,45.30
2019-03-24T09:19:58.267Z,42.17
2019-03-24T09:22:26.714Z,45.67
2019-03-24T09:24:55.151Z,44.07
2019-03-24T09:27:23.575Z,46.20
2019-03-24T09:29:52.055Z,47.23
2019-03-24T09:32:20.540Z,43.50
2019-03-24T09:34:48.967Z,46.40
2019-03-24T09:37:17.394Z,43.63
2019-03-24T09:39:45.828Z,44.97
2019-03-24T09:42:14.254Z,44.57
2019-03-24T09:44:42.714Z,44.20
2019-03-24T09:47:11.147Z,45.93
2019-03-24T09:49:39.587Z,43.30
2019-03-24T09:52:08.022Z,43.63
2019-03-24T09:54:36.467Z,45.83
2019-03-24T09:57:05.043Z,45.77
2019-03-24T09:59:33.499Z,44.77
2019-03-24T10:02:01.921Z,44.10
2019-03-24T10:04:30.349Z,45.70
2019-03-24T10:06:58.794Z,45.90
2019-03-24T10:09:27.237Z,42.13
2019-03-24T10:11:55.644Z,45.57
2019-03-24T10:14:24.086Z,46.93
2019-03-24T10:16:52.535Z,45.00
2019-03-24T10:19:20.988Z,45.43
2019-03-24T10:21:49.402Z,45.67
2019-03-24T10:24:17.853Z,44.27
2019-03-24T10:26:46.281Z,45.60
2019-03-24T10:29:14.731Z,42.33
2019-03-24T10:31:43.625Z,46.70
2019-03-24T10:34:12.049Z,44.10
2019-03-24T10:36:40.717Z,44.93
2019-03-24T10:39:09.150Z,43.80
2019-03-24T10:41:37.589Z,44.70
2019-03-24T10:44:06.069Z,43.93
2019-03-24T10:46:34.574Z,46.37
2019-03-24T10:49:03.166Z,45.53
2019-03-24T10:51:31.608Z,45.37
2019-03-24T10:54:00.048Z,45.17
2019-03-24T10:56:28.482Z,46.70
2019-03-24T10:58:56.918Z,46.27
2019-03-24T11:01:25.350Z,44.53
2019-03-24T11:03:53.795Z,46.33
2019-03-24T11:06:22.219Z,44.97
2019-03-24T11:08:50.743Z,45.87
2019-03-24T11:11:19.177Z,45.03
2019-03-24T11:13:47.870Z,44.97
2019-03-24T11:16:16.302Z,43.80
2019-03-24T11:18:44.755Z,45.37
2019-03-24T11:21:13.194Z,46.30
2019-03-24T11:23:41.628Z,44.13
2019-03-24T11:26:10.074Z,43.30
2019-03-24T11:28:38.497Z,46.60
2019-03-24T11:31:06.930Z,46.73
2019-03-24T11:33:35.364Z,43.47
2019-03-24T11:36:04.180Z,44.87
2019-03-24T11:38:32.605Z,45.20
2019-03-24T11:41:01.047Z,42.93
2019-03-24T11:43:29.518Z,47.03
2019-03-24T11:45:57.966Z,45.27
2019-03-24T11:48:26.379Z,45.67
2019-03-24T11:50:54.831Z,43.23
2019-03-24T11:53:23.325Z,46.80
2019-03-24T11:55:51.754Z,46.00
2019-03-24T11:58:20.178Z,45.10
2019-03-24T12:00:48.693Z,44.93
2019-03-24T12:03:17.109Z,41.83
2019-03-24T12:05:45.544Z,41.50
2019-03-24T12:08:14.007Z,42.37
2019-03-24T12:10:42.432Z,42.20
2019-03-24T12:13:10.958Z,42.97
2019-03-24T12:15:39.397Z,41.63
2019-03-24T12:18:07.889Z,42.43
2019-03-24T12:20:36.366Z,41.20
2019-03-24T12:23:04.794Z,40.17
2019-03-24T12:25:33.303Z,43.17
2019-03-24T12:28:01.717Z,41.47
2019-03-24T12:30:30.173Z,43.23
2019-03-24T12:32:58.615Z,41.33
2019-03-24T12:35:27.055Z,40.03
2019-03-24T12:37:55.474Z,40.23
2019-03-24T12:40:23.931Z,38.13
2019-03-24T12:42:52.353Z,40.35
2019-03-24T12:45:20.866Z,39.45
2019-03-24T12:47:49.374Z,39.30
2019-03-24T12:50:17.877Z,38.28
2019-03-24T12:52:46.309Z,40.03
2019-03-24T12:55:15.031Z,40.10
2019-03-24T12:57:44.255Z,40.98
2019-03-24T13:00:13.198Z,39.08
2019-03-24T13:02:41.692Z,39.15
2019-03-24T13:05:10.484Z,40.80
2019-03-24T13:07:39.008Z,39.67
2019-03-24T13:10:07.764Z,38.45
2019-03-24T13:12:36.453Z,36.68
2019-03-24T13:15:08.771Z,37.98
2019-03-24T13:17:37.329Z,38.08
2019-03-24T13:20:07.776Z,37.98
2019-03-24T13:22:36.455Z,37.38
2019-03-24T13:25:06.712Z,38.92
2019-03-24T13:27:35.180Z,40.28
2019-03-24T13:30:07.950Z,39.00
2019-03-24T13:32:36.378Z,39.10
2019-03-24T13:35:05.142Z,37.33
2019-03-24T13:37:33.587Z,35.00
2019-03-24T13:40:02.058Z,35.38
2019-03-24T13:42:30.568Z,38.23
2019-03-24T13:44:59.012Z,36.48
2019-03-24T13:47:27.455Z,36.65
2019-03-24T13:49:55.882Z,37.13
2019-03-24T13:52:24.409Z,36.75
2019-03-24T13:54:52.846Z,36.88
2019-03-24T13:57:21.711Z,36.90
2019-03-24T13:59:50.139Z,35.70
2019-03-24T14:02:18.652Z,37.85
2019-03-24T14:04:47.614Z,37.45
2019-03-24T14:07:16.206Z,34.78
2019-03-24T14:09:44.622Z,33.33
2019-03-24T14:12:13.051Z,37.25
2019-03-24T14:14:41.499Z,36.05
2019-03-24T14:17:09.945Z,36.28
2019-03-24T14:19:38.485Z,37.33
2019-03-24T14:22:06.997Z,37.90
2019-03-24T14:24:35.442Z,36.88
2019-03-24T14:27:03.878Z,33.53
2019-03-24T14:29:32.305Z,35.52
2019-03-24T14:32:00.744Z,35.80
2019-03-24T14:34:29.170Z,37.48
2019-03-24T14:36:57.619Z,37.67
2019-03-24T14:39:26.042Z,35.83
2019-03-24T14:41:54.472Z,36.68
2019-03-24T14:44:22.936Z,34.83
2019-03-24T14:46:51.361Z,36.48
2019-03-24T14:49:19.803Z,35.95
2019-03-24T14:51:48.229Z,37.67
2019-03-24T14:54:16.666Z,35.28
2019-03-24T14:56:45.099Z,36.60
2019-03-24T14:59:13.542Z,33.05
2019-03-24T15:01:41.988Z,34.98
2019-03-24T15:04:10.434Z,34.18
2019-03-24T15:06:38.878Z,36.13
2019-03-24T15:09:07.623Z,35.13
2019-03-24T15:11:36.046Z,34.92
2019-03-24T15:14:04.567Z,36.33
2019-03-24T15:16:32.987Z,34.58
2019-03-24T15:19:07.323Z,35.33
2019-03-24T15:21:35.757Z,32.25
2019-03-24T15:24:04.269Z,33.85
2019-03-24T15:26:32.696Z,33.38
2019-03-24T15:29:01.148Z,33.15
2019-03-24T15:31:29.593Z,32.90
2019-03-24T15:33:58.077Z,32.83
2019-03-24T15:36:26.504Z,35.08
2019-03-24T15:38:54.946Z,35.40
2019-03-24T15:41:23.390Z,34.38
2019-03-24T15:43:51.847Z,36.28
2019-03-24T15:46:20.303Z,36.83
2019-03-24T15:48:50.240Z,35.52
2019-03-24T15:51:18.985Z,33.35
2019-03-24T15:53:48.207Z,34.78
2019-03-24T15:56:16.633Z,34.27
2019-03-24T15:58:45.072Z,34.25
2019-03-24T16:01:13.552Z,35.03
2019-03-24T16:03:42.032Z,36.00
2019-03-24T16:06:13.080Z,32.88
2019-03-24T16:08:41.523Z,33.45
2019-03-24T16:11:09.968Z,35.30
2019-03-24T16:13:38.426Z,34.05
2019-03-24T16:16:06.840Z,34.85
2019-03-24T16:18:35.287Z,34.33
2019-03-24T16:21:08.553Z,34.83
2019-03-24T16:23:34.243Z,33.48
2019-03-24T16:26:02.687Z,34.48
2019-03-24T16:28:31.138Z,40.28
2019-03-24T16:30:59.621Z,44.42
2019-03-24T16:33:28.069Z,41.58
2019-03-24T16:35:56.507Z,40.03
2019-03-24T16:38:24.979Z,37.78
2019-03-24T16:40:53.459Z,39.65
2019-03-24T16:43:21.915Z,37.83
2019-03-24T16:45:50.590Z,35.10
2019-03-24T16:48:19.045Z,36.58
2019-03-24T16:50:47.464Z,40.83
2019-03-24T16:53:15.934Z,41.98
2019-03-24T16:55:44.360Z,39.70
2019-03-24T16:58:12.788Z,37.78
2019-03-24T17:00:41.244Z,34.03
2019-03-24T17:03:09.678Z,34.75
2019-03-24T17:05:38.122Z,34.10
2019-03-24T17:08:06.605Z,33.58
2019-03-24T17:10:35.042Z,34.65
2019-03-24T17:13:03.473Z,34.48
2019-03-24T17:15:31.927Z,34.48
2019-03-24T17:18:06.322Z,33.83
2019-03-24T17:20:34.765Z,34.53
2019-03-24T17:23:03.284Z,33.90
2019-03-24T17:25:32.722Z,35.15
2019-03-24T17:28:01.141Z,35.85
2019-03-24T17:30:29.593Z,36.77
2019-03-24T17:32:58.028Z,35.55
2019-03-24T17:35:26.469Z,37.83
2019-03-24T17:37:56.436Z,38.90
2019-03-24T17:40:24.880Z,37.63
2019-03-24T17:42:53.315Z,38.33
2019-03-24T17:45:21.767Z,37.55
2019-03-24T17:47:50.208Z,36.83
2019-03-24T17:50:18.805Z,39.50
2019-03-24T17:52:47.231Z,37.60
2019-03-24T17:55:26.842Z,37.28
2019-03-24T17:57:46.389Z,39.58
2019-03-24T18:00:19.174Z,42.75
2019-03-24T18:02:47.674Z,45.75
2019-03-24T18:05:16.124Z,41.95
2019-03-24T18:07:44.550Z,44.13
2019-03-24T18:10:13.070Z,39.48
2019-03-24T18:12:41.496Z,39.43
2019-03-24T18:15:10.696Z,41.68
2019-03-24T18:17:39.126Z,41.33
2019-03-24T18:20:09.396Z,40.37
2019-03-24T18:22:37.829Z,40.50
2019-03-24T18:25:07.727Z,39.37
2019-03-24T18:27:36.164Z,39.27
2019-03-24T18:30:07.951Z,40.50
2019-03-24T18:32:36.453Z,44.47
2019-03-24T18:35:09.622Z,39.47
2019-03-24T18:37:38.069Z,40.00
2019-03-24T18:40:10.766Z,40.30
2019-03-24T18:42:39.274Z,35.73
2019-03-24T18:45:09.647Z,37.93
2019-03-24T18:47:39.387Z,34.53
2019-03-24T18:50:11.698Z,37.07
2019-03-24T18:52:40.122Z,35.63
2019-03-24T18:55:09.319Z,36.00
2019-03-24T18:57:37.761Z,35.00
2019-03-24T19:00:13.226Z,33.97
2019-03-24T19:02:43.882Z,33.67
2019-03-24T19:05:12.542Z,34.70
2019-03-24T19:07:41.037Z,37.07
2019-03-24T19:10:11.112Z,36.63
2019-03-24T19:12:39.630Z,34.93
2019-03-24T19:15:10.875Z,34.03
2019-03-24T19:17:39.334Z,34.83
2019-03-24T19:20:09.687Z,33.90
2019-03-24T19:22:38.157Z,35.10
2019-03-24T19:25:09.089Z,32.77
2019-03-24T19:27:37.536Z,33.93
2019-03-24T19:30:09.198Z,35.53
2019-03-24T19:32:37.663Z,33.43
2019-03-24T19:35:07.903Z,33.93
2019-03-24T19:37:36.786Z,34.33
2019-03-24T19:40:08.537Z,36.00
2019-03-24T19:42:36.976Z,35.23
2019-03-24T19:45:05.850Z,34.83
2019-03-24T19:47:34.291Z,33.27
2019-03-24T19:50:02.740Z,36.87
2019-03-24T19:52:31.176Z,34.23
2019-03-24T19:54:59.595Z,33.53
2019-03-24T19:57:28.032Z,31.50
2019-03-24T19:59:56.466Z,32.60
2019-03-24T20:02:24.906Z,32.43
2019-03-24T20:04:55.230Z,32.53
2019-03-24T20:07:23.678Z,31.60
2019-03-24T20:09:52.138Z,31.27
2019-03-24T20:12:20.596Z,31.57
2019-03-24T20:14:49.016Z,38.70
2019-03-24T20:17:17.454Z,36.17
2019-03-24T20:19:45.867Z,36.47
2019-03-24T20:22:14.335Z,33.83
2019-03-24T20:24:42.781Z,36.43
2019-03-24T20:27:11.197Z,36.83
2019-03-24T20:29:39.630Z,35.77
2019-03-24T20:32:08.079Z,34.63
2019-03-24T20:34:36.527Z,33.03
2019-03-24T20:37:05.817Z,32.90
2019-03-24T20:39:34.340Z,32.83
2019-03-24T20:42:02.787Z,30.17
2019-03-24T20:44:31.245Z,31.53
2019-03-24T20:46:59.972Z,29.70
2019-03-24T20:49:28.478Z,31.27
2019-03-24T20:51:56.973Z,31.13
2019-03-24T20:54:25.448Z,32.17
2019-03-24T20:56:53.882Z,32.43
2019-03-24T20:59:22.316Z,32.67
2019-03-24T21:01:50.751Z,31.43
2019-03-24T21:04:20.323Z,31.47
2019-03-24T21:06:48.888Z,29.63
2019-03-24T21:09:17.310Z,28.27
2019-03-24T21:11:45.767Z,28.90
2019-03-24T21:14:14.194Z,27.23
2019-03-24T21:16:42.646Z,26.63
2019-03-24T21:19:11.097Z,27.73
2019-03-24T21:21:39.532Z,24.87
2019-03-24T21:24:07.979Z,26.00
2019-03-24T21:26:36.462Z,26.63
2019-03-24T21:29:04.980Z,27.00
2019-03-24T21:31:33.495Z,25.07
2019-03-24T21:34:01.934Z,25.37
2019-03-24T21:36:30.378Z,27.80
2019-03-24T21:38:58.822Z,27.60
2019-03-24T21:41:27.245Z,27.13
2019-03-24T21:43:55.684Z,28.17
2019-03-24T21:46:24.118Z,28.77
2019-03-24T21:48:52.559Z,30.10
2019-03-24T21:51:21.020Z,29.60
2019-03-24T21:53:49.478Z,29.43
2019-03-24T21:56:17.925Z,31.07
2019-03-24T21:58:46.378Z,27.87
2019-03-24T22:01:14.809Z,26.23
2019-03-24T22:03:43.257Z,27.53
2019-03-24T22:06:11.697Z,27.17
2019-03-24T22:08:40.215Z,27.70
2019-03-24T22:11:08.634Z,27.67
2019-03-24T22:13:37.085Z,27.30
2019-03-24T22:16:05.515Z,25.03
2019-03-24T22:18:33.950Z,26.43
2019-03-24T22:21:02.389Z,26.90
2019-03-24T22:23:30.823Z,26.17
2019-03-24T22:25:59.256Z,25.67
2019-03-24T22:28:27.707Z,26.17
2019-03-24T22:30:56.127Z,24.70
2019-03-24T22:33:24.572Z,26.73
2019-03-24T22:35:53.000Z,27.53
2019-03-24T22:38:21.458Z,25.70
2019-03-24T22:40:49.885Z,25.90
2019-03-24T22:43:18.326Z,24.33
2019-03-24T22:45:46.779Z,24.10
2019-03-24T22:48:15.203Z,24.37
2019-03-24T22:50:43.630Z,25.00
2019-03-24T22:53:12.089Z,24.33
2019-03-24T22:55:40.512Z,24.87
2019-03-24T22:58:08.974Z,25.73
2019-03-24T23:00:48.153Z,23.73
2019-03-24T23:03:16.595Z,22.83
2019-03-24T23:05:45.017Z,24.03
2019-03-24T23:08:13.464Z,23.33
2019-03-24T23:10:41.894Z,24.00
2019-03-24T23:13:10.346Z,22.83
2019-03-24T23:15:38.777Z,22.83
2019-03-24T23:18:07.225Z,21.80
2019-03-24T23:20:35.667Z,21.13
2019-03-24T23:23:04.077Z,21.43
2019-03-24T23:25:32.524Z,21.40
2019-03-24T23:28:00.955Z,21.63
2019-03-24T23:30:29.406Z,20.30
2019-03-24T23:32:57.839Z,19.93
2019-03-24T23:35:26.275Z,21.10
2019-03-24T23:37:54.703Z,19.00
2019-03-24T23:40:23.137Z,20.33
2019-03-24T23:42:51.550Z,18.40
2019-03-24T23:45:19.994Z,18.40
2019-03-24T23:47:48.429Z,18.40
2019-03-24T23:50:17.006Z,17.77
2019-03-24T23:52:45.445Z,17.43
2019-03-24T23:55:13.894Z,17.43
2019-03-24T23:57:42.308Z,18.60
